Time;durP1;ratioP1;P1;durP2;ratioP2;P2;SDS_P1;SDS_P2;PMS_P1;PMS_P2;Temp;Humidity;BMP_temperature;BMP_pressure;BME280_temperature;BME280_humidity;BME280_pressure;Samples;Min_cycle;Max_cycle;Signal;HPM_P1;HPM_P2
2022/08/29 00:00:34;;;;;;;4.10;1.63;;;16.90;99.90;;;;;;5031736;28;20174;-51
2022/08/29 00:03:01;;;;;;;6.28;1.80;;;16.90;99.90;;;;;;5031334;28;20278;-52
2022/08/29 00:05:30;;;;;;;4.55;1.70;;;16.90;99.90;;;;;;5031830;28;20177;-52
2022/08/29 00:07:57;;;;;;;3.70;1.80;;;16.90;99.90;;;;;;5031600;28;20167;-52
2022/08/29 00:10:23;;;;;;;4.88;2.47;;;16.80;99.90;;;;;;5031889;28;20171;-52
2022/08/29 00:12:49;;;;;;;5.65;1.90;;;16.80;99.90;;;;;;5031665;28;20230;-49
2022/08/29 00:15:15;;;;;;;7.78;2.20;;;16.60;99.90;;;;;;5031879;28;20175;-52
2022/08/29 00:17:41;;;;;;;6.18;2.08;;;16.60;99.90;;;;;;5031576;28;20163;-52
2022/08/29 00:20:10;;;;;;;2.78;1.90;;;16.60;99.90;;;;;;5031322;28;20217;-51
2022/08/29 00:22:35;;;;;;;3.28;1.80;;;16.50;99.90;;;;;;5030831;28;20249;-52
2022/08/29 00:25:04;;;;;;;4.70;1.63;;;16.50;99.90;;;;;;5031487;28;20168;-51
2022/08/29 00:27:31;;;;;;;8.60;2.35;;;16.50;99.90;;;;;;5031502;28;20172;-51
2022/08/29 00:29:57;;;;;;;6.80;1.73;;;16.40;99.90;;;;;;5031587;28;20229;-52
2022/08/29 00:32:22;;;;;;;6.10;1.73;;;16.40;99.90;;;;;;5031740;28;20176;-51
2022/08/29 00:34:48;;;;;;;5.85;1.73;;;16.30;99.90;;;;;;5031552;28;20226;-50
2022/08/29 00:37:14;;;;;;;5.50;2.00;;;16.30;99.90;;;;;;5031779;28;20167;-51
2022/08/29 00:39:39;;;;;;;7.55;2.00;;;16.20;99.90;;;;;;5031448;28;20179;-51
2022/08/29 00:42:05;;;;;;;3.65;1.83;;;16.10;99.90;;;;;;5031474;28;20238;-50
2022/08/29 00:44:31;;;;;;;3.97;1.65;;;16.20;99.90;;;;;;5031611;28;20176;-51
2022/08/29 00:47:02;;;;;;;2.33;1.83;;;16.10;99.90;;;;;;5031295;28;20658;-51
2022/08/29 00:49:29;;;;;;;3.28;1.90;;;16.10;99.90;;;;;;5031472;28;20579;-51
2022/08/29 00:51:59;;;;;;;3.97;1.50;;;16.10;99.90;;;;;;5031315;28;20172;-50
2022/08/29 00:54:25;;;;;;;10.00;2.00;;;16.00;99.90;;;;;;5034299;28;20293;-52
2022/08/29 00:56:52;;;;;;;2.03;1.60;;;16.00;99.90;;;;;;5033624;28;20191;-51
2022/08/29 00:59:21;;;;;;;6.95;1.90;;;16.00;99.90;;;;;;5035231;28;20171;-51
2022/08/29 01:01:47;;;;;;;3.20;1.65;;;16.00;99.90;;;;;;5035057;28;20257;-51
2022/08/29 01:04:13;;;;;;;6.93;2.20;;;15.60;99.90;;;;;;5035161;28;20173;-52
2022/08/29 01:06:40;;;;;;;4.57;1.80;;;15.80;99.90;;;;;;5034718;28;20163;-50
2022/08/29 01:09:07;;;;;;;1.60;1.40;;;15.80;99.90;;;;;;5034879;28;20171;-52
2022/08/29 01:14:19;;;;;;;5.20;1.77;;;15.90;99.90;;;;;;5034899;28;20294;-52
2022/08/29 01:16:47;;;;;;;6.20;1.98;;;15.90;99.90;;;;;;5034921;28;20229;-51
2022/08/29 01:19:47;;;;;;;2.65;1.80;;;15.90;99.90;;;;;;5033212;28;20221;-51
2022/08/29 01:22:18;;;;;;;5.22;1.80;;;15.90;99.90;;;;;;5032989;28;20215;-51
2022/08/29 01:24:49;;;;;;;8.13;2.25;;;15.80;99.90;;;;;;5033500;28;20173;-51
2022/08/29 01:27:20;;;;;;;3.90;1.90;;;15.70;99.90;;;;;;5034900;28;20596;-52
2022/08/29 01:29:46;;;;;;;3.95;1.70;;;15.60;99.90;;;;;;5033451;28;20174;-52
2022/08/29 01:32:13;;;;;;;4.65;1.92;;;15.50;99.90;;;;;;5034263;28;20170;-52
2022/08/29 01:34:40;;;;;;;2.75;1.58;;;15.50;99.90;;;;;;5034191;28;20155;-48
2022/08/29 01:37:08;;;;;;;3.92;1.90;;;15.60;99.90;;;;;;5034120;28;20184;-51
2022/08/29 01:39:37;;;;;;;5.57;1.95;;;15.60;99.90;;;;;;5034101;28;20163;-51
2022/08/29 01:42:08;;;;;;;2.45;1.75;;;15.70;99.90;;;;;;5033976;28;20321;-51
2022/08/29 01:44:34;;;;;;;3.03;1.90;;;15.70;99.90;;;;;;5034234;28;20197;-51
2022/08/29 01:47:00;;;;;;;3.38;1.80;;;15.70;99.90;;;;;;5034197;28;20187;-51
2022/08/29 01:49:26;;;;;;;4.30;1.80;;;15.60;99.90;;;;;;5033809;28;20654;-51
2022/08/29 01:51:52;;;;;;;4.07;1.77;;;15.60;99.90;;;;;;5033789;28;20549;-51
2022/08/29 01:54:18;;;;;;;2.80;2.03;;;15.50;99.90;;;;;;5033794;28;20177;-51
2022/08/29 01:56:49;;;;;;;3.08;1.80;;;15.60;99.90;;;;;;5034153;28;20639;-51
2022/08/29 01:59:17;;;;;;;3.45;1.67;;;15.70;99.90;;;;;;5034193;28;20160;-51
2022/08/29 02:01:50;;;;;;;6.57;1.73;;;15.70;99.90;;;;;;5034142;28;20210;-51
2022/08/29 02:04:16;;;;;;;2.50;1.80;;;15.60;99.90;;;;;;5033547;28;20503;-51
2022/08/29 02:06:42;;;;;;;7.85;1.90;;;15.60;99.90;;;;;;5033359;28;20171;-51
2022/08/29 02:09:08;;;;;;;5.32;2.47;;;15.60;99.90;;;;;;5033819;28;20171;-51
2022/08/29 02:11:35;;;;;;;3.83;2.20;;;15.50;99.90;;;;;;5033467;28;20217;-51
2022/08/29 02:14:03;;;;;;;4.55;1.60;;;15.50;99.90;;;;;;5033340;28;20269;-51
2022/08/29 02:16:30;;;;;;;4.30;2.33;;;15.30;99.90;;;;;;5033126;28;20179;-51
2022/08/29 02:18:56;;;;;;;5.50;2.00;;;15.50;99.90;;;;;;5033668;28;20179;-51
2022/08/29 02:21:24;;;;;;;3.95;2.22;;;15.50;99.90;;;;;;5033212;28;20348;-51
2022/08/29 02:23:51;;;;;;;3.63;1.90;;;15.40;99.90;;;;;;5033331;28;20167;-51
2022/08/29 02:26:18;;;;;;;6.55;2.15;;;15.40;99.90;;;;;;5033634;28;20168;-51
2022/08/29 02:28:44;;;;;;;6.53;1.80;;;15.40;99.90;;;;;;5033543;28;20163;-51
2022/08/29 02:31:09;;;;;;;3.28;1.70;;;15.40;99.90;;;;;;5033375;28;20168;-51
2022/08/29 02:33:36;;;;;;;2.97;1.70;;;15.40;99.90;;;;;;5033088;28;20186;-51
2022/08/29 02:36:04;;;;;;;3.08;1.92;;;15.40;99.90;;;;;;5033053;28;20191;-51
2022/08/29 02:38:29;;;;;;;4.85;2.17;;;15.30;99.90;;;;;;5032904;28;20186;-50
2022/08/29 02:40:55;;;;;;;4.18;2.03;;;15.30;99.90;;;;;;5032836;28;20159;-51
2022/08/29 02:43:22;;;;;;;4.53;2.10;;;15.30;99.90;;;;;;5032917;28;20175;-51
2022/08/29 02:45:48;;;;;;;4.05;1.67;;;15.20;99.90;;;;;;5033123;28;20247;-51
2022/08/29 02:48:14;;;;;;;8.60;2.13;;;15.20;99.90;;;;;;5033291;28;20214;-48
2022/08/29 02:50:42;;;;;;;3.97;2.08;;;15.10;99.90;;;;;;5032662;28;20182;-49
2022/08/29 02:53:08;;;;;;;5.05;1.92;;;15.00;99.90;;;;;;5032755;28;20209;-49
2022/08/29 02:55:34;;;;;;;3.40;1.98;;;15.10;99.90;;;;;;5032767;28;20166;-49
2022/08/29 02:58:00;;;;;;;3.45;1.83;;;15.20;99.90;;;;;;5032659;28;20171;-48
2022/08/29 03:00:26;;;;;;;3.53;2.05;;;15.10;99.90;;;;;;5032551;28;20163;-49
2022/08/29 03:02:53;;;;;;;5.25;2.00;;;15.10;99.90;;;;;;5032507;28;20203;-50
2022/08/29 03:05:22;;;;;;;5.32;2.83;;;15.10;99.90;;;;;;5032476;28;20242;-51
2022/08/29 03:07:48;;;;;;;4.85;1.90;;;15.20;99.90;;;;;;5032509;28;20178;-51
2022/08/29 03:10:14;;;;;;;3.20;1.80;;;15.10;99.90;;;;;;5032764;28;20246;-49
2022/08/29 03:12:40;;;;;;;4.65;2.10;;;15.20;99.90;;;;;;5032393;28;20245;-50
2022/08/29 03:15:07;;;;;;;7.70;2.60;;;15.10;99.90;;;;;;5032348;28;20597;-51
2022/08/29 03:17:33;;;;;;;2.22;1.77;;;15.10;99.90;;;;;;5032252;28;20250;-51
2022/08/29 03:19:59;;;;;;;5.10;2.30;;;15.10;99.90;;;;;;5032311;28;20185;-51
2022/08/29 03:22:26;;;;;;;3.63;1.90;;;15.10;99.90;;;;;;5032077;28;20214;-50
2022/08/29 03:24:52;;;;;;;4.90;2.05;;;15.10;99.90;;;;;;5032173;28;20237;-51
2022/08/29 03:27:18;;;;;;;9.65;2.20;;;15.00;99.90;;;;;;5032082;28;20634;-49
2022/08/29 03:29:44;;;;;;;4.03;2.30;;;15.00;99.90;;;;;;5032686;28;20167;-50
2022/08/29 03:32:10;;;;;;;3.50;2.40;;;14.90;99.90;;;;;;5030484;28;20253;-51
2022/08/29 03:34:36;;;;;;;8.15;2.67;;;15.00;99.90;;;;;;5032319;28;20266;-51
2022/08/29 03:37:02;;;;;;;4.72;2.50;;;15.00;99.90;;;;;;5030941;28;20254;-52
2022/08/29 03:39:28;;;;;;;5.72;2.50;;;15.00;99.90;;;;;;5032066;28;20174;-49
2022/08/29 03:41:54;;;;;;;8.32;2.30;;;15.00;99.90;;;;;;5031992;28;20202;-50
2022/08/29 03:44:20;;;;;;;9.93;2.50;;;15.00;99.90;;;;;;5032190;28;20171;-50
2022/08/29 03:46:46;;;;;;;3.63;2.00;;;15.00;99.90;;;;;;5032520;28;20886;-50
2022/08/29 03:49:12;;;;;;;6.85;2.33;;;15.00;99.90;;;;;;5032126;28;20258;-49
2022/08/29 03:51:38;;;;;;;8.02;2.35;;;15.00;99.90;;;;;;5031877;28;20533;-50
2022/08/29 03:54:05;;;;;;;4.72;2.03;;;15.00;99.90;;;;;;5031818;28;20635;-49
2022/08/29 03:56:31;;;;;;;7.22;2.58;;;15.00;99.90;;;;;;5031819;28;20177;-49
2022/08/29 03:58:57;;;;;;;5.35;2.22;;;14.90;99.90;;;;;;5031762;28;20167;-50
2022/08/29 04:01:25;;;;;;;4.65;2.30;;;14.80;99.90;;;;;;5031951;28;20576;-50
2022/08/29 04:03:52;;;;;;;5.97;2.30;;;14.80;99.90;;;;;;5031736;28;20159;-50
2022/08/29 04:06:18;;;;;;;6.00;2.50;;;14.70;99.90;;;;;;5031971;28;20535;-49
2022/08/29 04:08:47;;;;;;;5.13;2.20;;;14.60;99.90;;;;;;5032077;28;20175;-50
2022/08/29 04:11:14;;;;;;;4.97;2.13;;;14.50;99.90;;;;;;5031958;28;20176;-49
2022/08/29 04:13:40;;;;;;;4.65;2.40;;;14.40;99.90;;;;;;5031628;28;20219;-50
2022/08/29 04:16:14;;;;;;;8.15;2.13;;;14.50;99.90;;;;;;5031479;28;20171;-49
2022/08/29 04:18:40;;;;;;;3.40;2.55;;;14.50;99.90;;;;;;5031408;28;20293;-49
2022/08/29 04:21:07;;;;;;;4.95;2.22;;;14.40;99.90;;;;;;5031344;28;20191;-49
2022/08/29 04:23:34;;;;;;;4.95;2.30;;;14.40;99.90;;;;;;5031275;28;20207;-49
2022/08/29 04:26:00;;;;;;;4.10;2.17;;;14.40;99.90;;;;;;5029931;28;20198;-51
2022/08/29 04:28:25;;;;;;;4.13;2.03;;;14.50;99.90;;;;;;5032826;28;20198;-50
2022/08/29 04:30:52;;;;;;;5.45;2.30;;;14.40;99.90;;;;;;5035378;28;20167;-49
2022/08/29 04:33:19;;;;;;;4.88;2.10;;;14.30;99.90;;;;;;5035292;28;20167;-49
2022/08/29 04:35:45;;;;;;;3.63;2.17;;;14.40;99.90;;;;;;5035174;28;20183;-50
2022/08/29 04:38:11;;;;;;;5.43;2.20;;;14.30;99.90;;;;;;5035062;28;20631;-48
2022/08/29 04:40:39;;;;;;;3.08;1.90;;;14.30;99.90;;;;;;5034778;28;20171;-51
2022/08/29 04:43:05;;;;;;;3.47;1.85;;;14.40;99.90;;;;;;5034914;28;20682;-50
2022/08/29 04:45:32;;;;;;;5.20;2.35;;;14.40;99.90;;;;;;5034862;28;20175;-51
2022/08/29 04:47:58;;;;;;;3.97;2.10;;;14.40;99.90;;;;;;5035228;28;20241;-50
2022/08/29 04:50:24;;;;;;;4.60;2.03;;;14.40;99.90;;;;;;5034957;28;20258;-50
2022/08/29 04:52:51;;;;;;;7.95;2.15;;;14.50;99.90;;;;;;5034870;28;20175;-50
2022/08/29 04:55:18;;;;;;;2.58;2.22;;;14.50;99.90;;;;;;5035057;28;20639;-50
2022/08/29 04:57:44;;;;;;;5.55;2.35;;;14.40;99.90;;;;;;5035034;28;20156;-48
2022/08/29 05:00:13;;;;;;;3.35;2.25;;;14.40;99.90;;;;;;5034738;28;20168;-48
2022/08/29 05:02:40;;;;;;;5.43;2.35;;;14.40;99.90;;;;;;5034261;28;20310;-49
2022/08/29 05:05:08;;;;;;;4.32;2.58;;;14.40;99.90;;;;;;5034717;28;20163;-48
2022/08/29 05:07:34;;;;;;;5.50;2.40;;;14.30;99.90;;;;;;5034904;28;20254;-49
2022/08/29 05:10:05;;;;;;;4.75;2.60;;;14.40;99.90;;;;;;5034696;28;20247;-48
2022/08/29 05:12:32;;;;;;;9.30;2.67;;;14.40;99.90;;;;;;5034432;28;20202;-51
2022/08/29 05:14:58;;;;;;;5.78;2.85;;;14.40;99.90;;;;;;5034523;28;20164;-52
2022/08/29 05:17:24;;;;;;;8.25;2.10;;;14.40;99.90;;;;;;5034792;28;20180;-52
2022/08/29 05:19:50;;;;;;;3.47;2.00;;;14.40;99.90;;;;;;5034619;28;20171;-51
2022/08/29 05:22:18;;;;;;;3.70;1.98;;;14.50;99.90;;;;;;5034538;28;20612;-51
2022/08/29 05:24:44;;;;;;;4.85;2.25;;;14.50;99.90;;;;;;5034890;28;20174;-52
2022/08/29 05:27:13;;;;;;;7.40;2.42;;;14.60;99.90;;;;;;5034270;28;20535;-50
2022/08/29 05:29:40;;;;;;;6.82;2.13;;;14.60;99.90;;;;;;5034429;28;20172;-51
2022/08/29 05:32:09;;;;;;;6.53;2.55;;;14.60;99.90;;;;;;5034230;28;20167;-51
2022/08/29 05:34:35;;;;;;;5.43;2.40;;;14.60;99.90;;;;;;5034179;28;20170;-51
2022/08/29 05:37:04;;;;;;;4.65;3.05;;;14.70;99.90;;;;;;5034062;28;20171;-51
2022/08/29 05:39:30;;;;;;;4.28;2.60;;;14.70;99.90;;;;;;5032719;28;20499;-50
2022/08/29 05:41:57;;;;;;;3.72;2.30;;;14.60;99.90;;;;;;5033666;28;20211;-51
2022/08/29 05:44:23;;;;;;;7.95;2.80;;;14.60;99.90;;;;;;5033766;28;20214;-51
2022/08/29 05:46:49;;;;;;;4.50;2.50;;;14.70;99.90;;;;;;5033741;28;20206;-51
2022/08/29 05:49:15;;;;;;;6.63;2.90;;;14.90;99.90;;;;;;5034182;28;20167;-49
2022/08/29 05:51:41;;;;;;;7.15;2.88;;;15.00;99.90;;;;;;5034021;28;20200;-51
2022/08/29 05:54:07;;;;;;;6.25;2.88;;;15.00;99.90;;;;;;5033967;28;20172;-51
2022/08/29 05:56:33;;;;;;;6.05;2.58;;;15.10;99.90;;;;;;5033772;28;20251;-51
2022/08/29 05:58:59;;;;;;;6.55;2.97;;;15.20;99.90;;;;;;5033752;28;20198;-51
2022/08/29 06:01:27;;;;;;;19.15;3.85;;;15.40;99.90;;;;;;5033583;28;20206;-51
2022/08/29 06:03:54;;;;;;;16.05;3.53;;;15.50;99.90;;;;;;5033799;28;20180;-52
2022/08/29 06:06:22;;;;;;;25.73;3.50;;;15.60;99.90;;;;;;5033492;28;20206;-52
2022/08/29 06:08:48;;;;;;;5.60;2.33;;;15.80;99.90;;;;;;5033488;28;20175;-51
2022/08/29 06:11:19;;;;;;;6.63;2.80;;;16.00;99.90;;;;;;5034035;28;20198;-51
2022/08/29 06:13:45;;;;;;;6.55;3.15;;;16.20;99.90;;;;;;5033679;28;20286;-52
2022/08/29 06:16:13;;;;;;;6.45;2.65;;;16.20;99.90;;;;;;5033956;28;20194;-52
2022/08/29 06:18:40;;;;;;;6.90;2.90;;;16.20;99.90;;;;;;5033333;28;20175;-51
2022/08/29 06:21:06;;;;;;;6.75;2.92;;;16.20;99.90;;;;;;5031966;28;20258;-51
2022/08/29 06:23:32;;;;;;;5.10;2.83;;;16.20;99.90;;;;;;5033206;28;20164;-51
2022/08/29 06:25:58;;;;;;;8.43;3.38;;;16.30;99.90;;;;;;5033118;28;20262;-51
2022/08/29 06:28:26;;;;;;;5.22;2.90;;;16.30;99.90;;;;;;5033177;28;20175;-50
2022/08/29 06:30:52;;;;;;;4.85;2.97;;;16.40;99.90;;;;;;5033092;28;20654;-51
2022/08/29 06:33:17;;;;;;;4.18;2.72;;;16.50;99.90;;;;;;5033086;28;20168;-51
2022/08/29 06:35:43;;;;;;;10.88;3.53;;;16.50;99.90;;;;;;5033362;28;20639;-51
2022/08/29 06:38:08;;;;;;;8.63;3.17;;;16.50;99.90;;;;;;5032933;28;20163;-51
2022/08/29 06:40:34;;;;;;;9.05;3.03;;;16.50;99.90;;;;;;5032888;28;20176;-52
2022/08/29 06:43:00;;;;;;;13.00;3.80;;;16.50;99.90;;;;;;5032818;28;20210;-50
2022/08/29 06:45:25;;;;;;;13.23;3.33;;;16.40;99.90;;;;;;5032853;28;20171;-51
2022/08/29 06:47:51;;;;;;;9.13;3.00;;;16.50;99.90;;;;;;5033033;28;20527;-52
2022/08/29 06:50:17;;;;;;;11.45;3.80;;;16.60;99.90;;;;;;5032638;28;20167;-51
2022/08/29 06:52:42;;;;;;;9.25;3.30;;;16.60;99.90;;;;;;5032654;28;20528;-51
2022/08/29 06:55:11;;;;;;;7.55;3.25;;;16.80;99.90;;;;;;5032646;28;20525;-51
2022/08/29 06:57:43;;;;;;;6.78;3.55;;;16.90;99.90;;;;;;5031595;28;20532;-51
2022/08/29 07:00:12;;;;;;;7.63;3.22;;;16.90;99.90;;;;;;5032874;28;20581;-51
2022/08/29 07:02:38;;;;;;;11.93;4.20;;;17.00;99.90;;;;;;5032621;28;20210;-51
2022/08/29 07:05:05;;;;;;;7.53;2.80;;;17.00;99.90;;;;;;5032438;28;20166;-51
2022/08/29 07:07:30;;;;;;;9.32;3.55;;;17.10;99.90;;;;;;5032417;28;20176;-50
2022/08/29 07:09:56;;;;;;;8.00;3.10;;;17.20;99.90;;;;;;5032574;28;20217;-51
2022/08/29 07:12:22;;;;;;;6.22;3.15;;;17.30;99.90;;;;;;5032237;28;20172;-51
2022/08/29 07:14:48;;;;;;;12.55;4.10;;;17.30;99.90;;;;;;5032292;28;20179;-50
2022/08/29 07:17:13;;;;;;;14.18;3.42;;;17.40;99.90;;;;;;5032624;28;20171;-51
2022/08/29 07:19:39;;;;;;;5.95;3.17;;;17.50;99.90;;;;;;5032161;28;20159;-50
2022/08/29 07:22:06;;;;;;;10.63;3.60;;;17.70;99.90;;;;;;5032238;28;20567;-49
2022/08/29 07:24:33;;;;;;;6.65;3.47;;;17.80;99.90;;;;;;5032141;28;20690;-51
2022/08/29 07:26:59;;;;;;;5.93;3.22;;;18.00;99.90;;;;;;5032202;28;20254;-49
2022/08/29 07:29:25;;;;;;;7.15;3.00;;;18.00;99.90;;;;;;5032284;28;20171;-49
2022/08/29 07:31:51;;;;;;;11.77;3.20;;;18.00;99.90;;;;;;5031014;28;20198;-51
2022/08/29 07:34:18;;;;;;;5.07;2.67;;;18.10;99.90;;;;;;5032179;28;20230;-51
2022/08/29 07:36:44;;;;;;;6.40;3.17;;;18.30;99.90;;;;;;5032639;28;20187;-51
2022/08/29 07:39:16;;;;;;;7.10;3.13;;;18.30;99.90;;;;;;5030872;28;20163;-51
2022/08/29 07:41:43;;;;;;;6.63;3.00;;;18.50;99.90;;;;;;5032268;28;20195;-50
2022/08/29 07:44:09;;;;;;;9.60;3.28;;;18.70;99.90;;;;;;5031962;28;20175;-51
2022/08/29 07:46:35;;;;;;;5.50;3.42;;;18.80;99.90;;;;;;5031789;28;20170;-51
2022/08/29 07:49:01;;;;;;;6.22;3.00;;;18.90;99.90;;;;;;5031802;28;20168;-50
2022/08/29 07:51:27;;;;;;;7.32;3.08;;;19.00;99.90;;;;;;5031907;28;20299;-50
2022/08/29 07:53:54;;;;;;;5.10;2.78;;;19.20;99.90;;;;;;5031807;28;20171;-50
2022/08/29 07:56:24;;;;;;;9.60;2.95;;;19.20;99.90;;;;;;5031816;28;20179;-50
2022/08/29 07:58:49;;;;;;;6.38;2.78;;;19.30;99.90;;;;;;5031997;28;20181;-51
2022/08/29 08:01:15;;;;;;;6.05;2.92;;;19.40;99.90;;;;;;5032010;28;20266;-51
2022/08/29 08:03:41;;;;;;;8.02;3.25;;;19.50;99.90;;;;;;5034005;28;20175;-50
2022/08/29 08:06:08;;;;;;;6.82;3.40;;;19.70;99.90;;;;;;5035764;28;20178;-50
2022/08/29 08:08:34;;;;;;;7.57;3.30;;;19.70;99.90;;;;;;5035813;28;20175;-49
2022/08/29 08:11:01;;;;;;;7.90;3.20;;;20.00;99.90;;;;;;5036015;28;20182;-51
2022/08/29 08:13:27;;;;;;;6.63;3.13;;;20.00;99.90;;;;;;5035536;28;20211;-51
2022/08/29 08:15:54;;;;;;;4.15;2.63;;;20.20;99.90;;;;;;5035707;28;20170;-51
2022/08/29 08:18:20;;;;;;;3.33;2.22;;;20.50;99.90;;;;;;5035652;28;20301;-50
2022/08/29 08:20:47;;;;;;;4.05;2.58;;;20.30;99.90;;;;;;5035545;28;20200;-50
2022/08/29 08:23:14;;;;;;;6.47;2.92;;;20.60;99.90;;;;;;5035746;28;20716;-51
2022/08/29 08:25:40;;;;;;;11.32;2.65;;;20.70;99.90;;;;;;5036068;28;20536;-51
2022/08/29 08:28:05;;;;;;;2.03;1.83;;;20.80;99.90;;;;;;5035389;28;20167;-51
2022/08/29 08:30:33;;;;;;;7.25;2.35;;;20.70;99.90;;;;;;5035386;28;20171;-51
2022/08/29 08:32:59;;;;;;;6.57;2.22;;;20.60;99.90;;;;;;5035596;28;20247;-50
2022/08/29 08:35:24;;;;;;;7.90;2.30;;;20.70;99.90;;;;;;5035299;28;20213;-50
2022/08/29 08:37:51;;;;;;;5.88;2.47;;;20.90;99.90;;;;;;5035286;28;20167;-49
2022/08/29 08:40:25;;;;;;;5.20;2.17;;;20.90;99.90;;;;;;5035505;28;20178;-51
2022/08/29 08:42:53;;;;;;;3.38;1.80;;;20.90;99.90;;;;;;5035114;28;20207;-51
2022/08/29 08:45:26;;;;;;;6.72;2.40;;;20.80;99.90;;;;;;5035148;28;20190;-51
2022/08/29 08:48:16;;;;;;;8.75;2.30;;;21.00;99.90;;;;;;5035140;28;20175;-53
2022/08/29 08:50:58;;;;;;;3.72;2.20;;;21.40;99.90;;;;;;5035401;28;20209;-52
2022/08/29 08:53:39;;;;;;;3.00;1.85;;;21.80;99.90;;;;;;5035075;28;20171;-52
2022/08/29 08:56:28;;;;;;;4.70;1.95;;;21.40;99.90;;;;;;5034881;28;20666;-51
2022/08/29 08:59:01;;;;;;;3.35;2.05;;;21.50;99.90;;;;;;5034850;28;20246;-52
2022/08/29 09:01:38;;;;;;;7.53;2.40;;;21.80;99.90;;;;;;5034854;28;20202;-50
2022/08/29 09:04:27;;;;;;;6.38;2.72;;;21.90;99.90;;;;;;5034713;28;20170;-51
2022/08/29 09:07:17;;;;;;;4.80;2.03;;;22.00;99.90;;;;;;5034764;28;20639;-51
2022/08/29 09:10:12;;;;;;;5.47;1.90;;;22.00;99.90;;;;;;5034996;28;20167;-51
2022/08/29 09:13:17;;;;;;;4.90;2.45;;;22.00;99.90;;;;;;5034516;28;20207;-50
2022/08/29 09:15:46;;;;;;;8.45;2.30;;;22.20;99.90;;;;;;5034608;28;20167;-51
2022/08/29 09:18:29;;;;;;;4.57;2.08;;;21.80;99.90;;;;;;5034859;28;20167;-51
2022/08/29 09:20:55;;;;;;;4.55;2.20;;;22.00;99.90;;;;;;5034303;28;20190;-48
2022/08/29 09:23:21;;;;;;;3.80;2.40;;;21.90;99.90;;;;;;5034576;28;20245;-50
2022/08/29 09:25:47;;;;;;;4.72;2.35;;;22.00;99.90;;;;;;5034394;28;20670;-50
2022/08/29 09:28:13;;;;;;;5.65;2.38;;;22.10;99.90;;;;;;5034578;28;20229;-51
2022/08/29 09:30:42;;;;;;;2.70;1.88;;;22.10;99.90;;;;;;5034321;28;20163;-51
2022/08/29 09:33:11;;;;;;;6.63;2.22;;;22.30;99.90;;;;;;5034132;28;20172;-51
2022/08/29 09:35:39;;;;;;;4.10;2.45;;;22.40;99.90;;;;;;5034108;28;20167;-51
2022/08/29 09:38:24;;;;;;;3.00;1.80;;;22.50;99.90;;;;;;5034136;28;20160;-51
2022/08/29 09:40:59;;;;;;;6.22;2.45;;;22.70;99.90;;;;;;5034358;28;20176;-50
2022/08/29 09:43:40;;;;;;;4.25;2.20;;;22.70;99.90;;;;;;5034007;28;20210;-50
2022/08/29 09:46:16;;;;;;;6.35;2.40;;;22.80;99.90;;;;;;5033648;28;20246;-51
2022/08/29 09:48:58;;;;;;;5.15;2.40;;;22.80;99.90;;;;;;5034199;28;20526;-50
2022/08/29 09:51:29;;;;;;;3.40;2.22;;;22.90;99.90;;;;;;5034046;28;20623;-51
2022/08/29 09:54:13;;;;;;;11.27;2.45;;;22.70;99.90;;;;;;5033502;28;20225;-51
2022/08/29 09:57:09;;;;;;;5.95;3.35;;;23.00;99.90;;;;;;5033896;28;20167;-49
2022/08/29 09:59:38;;;;;;;6.82;2.40;;;23.00;99.90;;;;;;5030773;28;20183;-50
2022/08/29 10:02:15;;;;;;;4.38;2.00;;;22.60;99.90;;;;;;5033660;28;20290;-50
2022/08/29 10:04:43;;;;;;;6.47;2.40;;;22.80;99.90;;;;;;5033986;28;20163;-51
2022/08/29 10:07:15;;;;;;;5.78;2.30;;;23.10;99.90;;;;;;5033588;28;20552;-50
2022/08/29 10:09:52;;;;;;;5.43;2.78;;;23.40;99.90;;;;;;5033560;28;20639;-51
2022/08/29 10:12:45;;;;;;;5.20;2.45;;;23.40;99.90;;;;;;5033046;28;20175;-51
2022/08/29 10:15:17;;;;;;;3.28;2.20;;;23.40;99.90;;;;;;5023793;28;20262;-48
2022/08/29 10:20:49;;;;;;;6.00;2.40;;;23.60;99.90;;;;;;5033432;28;20171;-48
2022/08/29 10:23:59;;;;;;;6.82;2.47;;;23.60;99.90;;;;;;5033300;28;20240;-49
2022/08/29 10:26:43;;;;;;;4.70;2.00;;;23.50;99.90;;;;;;5027058;28;20179;-51
2022/08/29 10:29:25;;;;;;;2.40;2.10;;;23.50;99.90;;;;;;5033469;28;20228;-51
2022/08/29 10:32:16;;;;;;;8.45;2.38;;;23.40;99.90;;;;;;5033212;28;20242;-51
2022/08/29 10:34:51;;;;;;;5.13;2.55;;;23.60;99.90;;;;;;5033345;28;20250;-51
2022/08/29 10:37:31;;;;;;;4.82;2.05;;;23.80;99.90;;;;;;5032836;28;20566;-51
2022/08/29 10:40:08;;;;;;;5.80;2.47;;;23.90;99.90;;;;;;5031659;28;20528;-51
2022/08/29 10:42:38;;;;;;;4.90;2.10;;;23.90;99.90;;;;;;5032952;28;20210;-51
2022/08/29 10:45:24;;;;;;;3.47;1.98;;;23.90;99.90;;;;;;5032359;28;20631;-51
2022/08/29 10:47:55;;;;;;;5.93;2.53;;;23.80;99.90;;;;;;5033063;28;20233;-51
2022/08/29 10:50:34;;;;;;;4.60;2.50;;;23.70;99.90;;;;;;5032979;28;20173;-48
2022/08/29 10:53:08;;;;;;;4.03;2.10;;;23.60;99.90;;;;;;5032715;28;20528;-47
2022/08/29 10:56:00;;;;;;;6.47;2.53;;;23.80;99.90;;;;;;5032654;28;20195;-48
2022/08/29 10:58:40;;;;;;;4.90;2.42;;;24.10;99.90;;;;;;5032637;28;20654;-48
2022/08/29 11:01:21;;;;;;;6.32;2.72;;;23.90;99.90;;;;;;5032632;28;20198;-47
2022/08/29 11:04:05;;;;;;;6.97;2.65;;;24.20;99.90;;;;;;5032431;28;20163;-47
2022/08/29 11:06:36;;;;;;;5.82;2.67;;;24.30;99.90;;;;;;5032129;28;20163;-47
2022/08/29 11:09:07;;;;;;;6.40;2.53;;;24.00;99.90;;;;;;5032464;28;20166;-47
2022/08/29 11:11:36;;;;;;;6.07;2.55;;;24.60;99.90;;;;;;5032166;28;20167;-48
2022/08/29 11:14:07;;;;;;;5.30;2.55;;;24.80;99.90;;;;;;5032023;28;20207;-48
2022/08/29 11:16:46;;;;;;;5.70;2.58;;;24.80;99.90;;;;;;5032202;28;20197;-48
2022/08/29 11:19:22;;;;;;;4.03;2.17;;;24.80;99.90;;;;;;5032687;28;20182;-47
2022/08/29 11:21:59;;;;;;;8.70;2.85;;;25.00;99.90;;;;;;5031975;28;20195;-48
2022/08/29 11:24:29;;;;;;;4.65;2.53;;;25.00;99.90;;;;;;5031904;28;20167;-47
2022/08/29 11:26:57;;;;;;;5.25;2.50;;;24.90;99.90;;;;;;5032155;28;20170;-47
2022/08/29 11:29:29;;;;;;;7.03;2.75;;;24.90;99.90;;;;;;5032069;28;20163;-47
2022/08/29 11:32:22;;;;;;;5.93;2.80;;;25.30;99.90;;;;;;5032111;28;20169;-47
2022/08/29 11:35:00;;;;;;;3.40;2.30;;;25.50;99.90;;;;;;5032284;28;20181;-48
2022/08/29 11:37:44;;;;;;;7.50;3.08;;;25.10;99.90;;;;;;5031959;28;20163;-49
2022/08/29 11:40:28;;;;;;;4.35;2.65;;;25.20;99.90;;;;;;5032243;28;20533;-48
2022/08/29 11:43:00;;;;;;;3.92;2.45;;;25.50;99.90;;;;;;5031891;28;20198;-47
2022/08/29 11:45:29;;;;;;;3.85;2.28;;;25.80;99.90;;;;;;5031889;28;20178;-47
2022/08/29 11:48:32;;;;;;;6.45;2.60;;;25.60;99.90;;;;;;5031970;28;20207;-47
2022/08/29 11:50:58;;;;;;;7.63;2.53;;;25.30;99.90;;;;;;5031287;28;20182;-51
2022/08/29 11:53:32;;;;;;;7.88;2.88;;;25.70;99.90;;;;;;5031553;28;20537;-50
2022/08/29 11:56:13;;;;;;;6.13;2.75;;;25.90;99.90;;;;;;5031810;28;20178;-51
2022/08/29 11:58:48;;;;;;;6.72;2.60;;;25.80;99.90;;;;;;5031037;28;20189;-50
2022/08/29 12:01:32;;;;;;;6.90;2.53;;;25.60;99.90;;;;;;5031375;28;20154;-46
2022/08/29 12:03:59;;;;;;;7.30;2.78;;;26.10;99.90;;;;;;5031131;28;20182;-51
2022/08/29 12:06:55;;;;;;;7.05;2.97;;;26.00;99.80;;;;;;5031269;28;20163;-51
2022/08/29 12:09:47;;;;;;;6.25;3.10;;;25.80;98.50;;;;;;5030444;28;20202;-50
2022/08/29 12:12:17;;;;;;;5.18;3.05;;;26.00;99.30;;;;;;5031806;28;20269;-51
2022/08/29 12:14:44;;;;;;;6.57;2.70;;;25.70;99.10;;;;;;5031786;28;20182;-51
2022/08/29 12:17:15;;;;;;;8.55;3.55;;;25.60;99.90;;;;;;5031708;28;20220;-50
2022/08/29 12:19:51;;;;;;;4.03;2.72;;;25.30;98.90;;;;;;5031489;28;20243;-51
2022/08/29 12:22:50;;;;;;;5.57;2.40;;;25.30;99.90;;;;;;5031102;28;20284;-49
2022/08/29 12:25:21;;;;;;;7.63;2.60;;;25.20;99.40;;;;;;5031230;28;20176;-51
2022/08/29 12:28:17;;;;;;;4.57;2.55;;;25.30;99.90;;;;;;5031133;28;20167;-49
2022/08/29 12:30:57;;;;;;;5.90;2.28;;;25.00;99.90;;;;;;5031776;28;20167;-51
2022/08/29 12:33:38;;;;;;;3.60;2.33;;;25.20;99.90;;;;;;5031005;28;20163;-51
2022/08/29 12:36:06;;;;;;;6.70;2.53;;;25.00;99.70;;;;;;5030686;28;20167;-51
2022/08/29 12:38:49;;;;;;;4.20;2.30;;;25.00;99.90;;;;;;5031108;28;20191;-51
2022/08/29 12:41:54;;;;;;;5.63;2.67;;;24.70;99.90;;;;;;5031177;28;20167;-50
2022/08/29 12:44:27;;;;;;;4.78;2.90;;;25.10;99.90;;;;;;5031094;28;20167;-50
2022/08/29 12:47:05;;;;;;;5.57;2.67;;;25.50;99.90;;;;;;5031084;28;20218;-51
2022/08/29 12:49:42;;;;;;;5.07;2.50;;;25.70;99.80;;;;;;5032159;28;20626;-50
2022/08/29 12:52:21;;;;;;;4.85;2.70;;;25.60;99.90;;;;;;5034703;28;20179;-51
2022/08/29 12:54:47;;;;;;;8.75;2.97;;;25.50;99.80;;;;;;5035002;28;20175;-51
2022/08/29 12:57:42;;;;;;;4.70;2.63;;;25.40;99.50;;;;;;5017251;28;20181;-51
2022/08/29 13:00:15;;;;;;;7.10;2.70;;;25.00;99.40;;;;;;5033860;28;20180;-51
2022/08/29 13:02:53;;;;;;;9.75;2.90;;;25.20;99.90;;;;;;5034077;28;20203;-51
2022/08/29 13:05:22;;;;;;;6.20;2.55;;;24.90;99.90;;;;;;5034496;28;20158;-49
2022/08/29 13:07:57;;;;;;;3.50;2.40;;;24.70;99.60;;;;;;5034520;28;20171;-51